DFW weather

Dallas Fort Worth International Airport
Dallas-Fort Worth, Texas, United States

Public forecast

Using degrees Fahrenheit for public forecast. Weather courtesy of forecast.io.

METAR (pilot weather report)

Retrieved 2017/05/24 23:53 UTC (1 hour ago):

KDFW 242353Z 36008KT 10SM CLR 27/07 A2969 RMK AO2 SLP045 T02720067 10283 20239 56019

TAF (pilot weather forecast)

Forecast is more than 12 hours old.

Retrieved 2017/05/24 00:22 UTC (1 day ago):

TAF KDFW 242320Z 2500/2606 01007KT P6SM FEW250 FM250300 VRB04KT P6SM SKC FM250600 15008KT P6SM SKC FM251600 18018G28KT P6SM FEW250